createdAt,value
2023-04-04T00:01:04.278Z,100368.78
2023-04-04T00:04:10.599Z,100365.55
2023-04-04T00:07:15.843Z,100357.17
2023-04-04T00:10:23.958Z,100362.46
2023-04-04T00:13:31.047Z,100364.02
2023-04-04T00:16:37.477Z,100363.31
2023-04-04T00:19:44.914Z,100358.72
2023-04-04T00:22:51.788Z,100368.61
2023-04-04T00:26:00.559Z,100371.02
2023-04-04T00:29:06.982Z,100370.84
2023-04-04T00:32:13.404Z,100369.64
2023-04-04T00:35:21.577Z,100374.07
2023-04-04T00:38:26.890Z,100373.58
2023-04-04T00:41:31.897Z,100385.87
2023-04-04T00:44:38.556Z,100391.66
2023-04-04T00:47:45.655Z,100387.90
2023-04-04T00:50:52.786Z,100392.69
2023-04-04T00:54:01.447Z,100397.12
2023-04-04T00:57:06.324Z,100407.21
2023-04-04T01:00:14.372Z,100401.08
2023-04-04T01:03:21.421Z,100396.31
2023-04-04T01:06:28.453Z,100398.70
2023-04-04T01:09:37.652Z,100395.44
2023-04-04T01:12:43.845Z,100395.27
2023-04-04T01:15:48.866Z,100392.71
2023-04-04T01:18:55.673Z,100394.08
2023-04-04T01:22:01.090Z,100391.34
2023-04-04T01:25:08.201Z,100389.81
2023-04-04T01:28:16.465Z,100380.58
2023-04-04T01:31:22.757Z,100379.05
2023-04-04T01:35:09.134Z,100382.45
2023-04-04T01:38:30.273Z,100389.45
2023-04-04T01:41:36.928Z,100401.75
2023-04-04T01:44:44.158Z,100403.28
2023-04-04T01:47:56.337Z,100397.13
2023-04-04T01:51:03.488Z,100404.98
2023-04-04T01:54:08.892Z,100400.70
2023-04-04T01:57:15.068Z,100408.39
2023-04-04T02:00:23.093Z,100404.46
2023-04-04T02:03:28.586Z,100406.66
2023-04-04T02:06:34.752Z,100417.05
2023-04-04T02:09:41.142Z,100407.66
2023-04-04T02:12:46.885Z,100408.70
2023-04-04T02:15:53.495Z,100413.99
2023-04-04T02:19:00.241Z,100418.42
2023-04-04T02:22:09.062Z,100425.95
2023-04-04T02:25:15.313Z,100428.84
2023-04-04T02:28:21.343Z,100420.48
2023-04-04T02:31:27.598Z,100419.65
2023-04-04T02:34:34.257Z,100409.05
2023-04-04T02:37:41.400Z,100408.72
2023-04-04T02:40:54.808Z,100409.09
2023-04-04T02:44:00.749Z,100412.48
2023-04-04T02:47:06.590Z,100424.58
2023-04-04T02:50:12.764Z,100426.11
2023-04-04T02:53:19.376Z,100428.67
2023-04-04T02:56:26.320Z,100437.73
2023-04-04T02:59:33.082Z,100432.97
2023-04-04T03:02:40.384Z,100437.77
2023-04-04T03:05:47.542Z,100440.66
2023-04-04T03:08:54.137Z,100448.69
2023-04-04T03:11:59.830Z,100447.66
2023-04-04T03:15:07.808Z,100458.58
2023-04-04T03:18:14.995Z,100455.84
2023-04-04T03:21:21.635Z,100462.67
2023-04-04T03:24:30.109Z,100467.80
2023-04-04T03:27:36.659Z,100476.33
2023-04-04T03:30:45.912Z,100474.27
2023-04-04T03:33:53.672Z,100483.33
2023-04-04T03:37:00.799Z,100479.20
2023-04-04T03:40:08.357Z,100480.73
2023-04-04T03:43:13.807Z,100475.27
2023-04-04T03:46:22.385Z,100485.52
2023-04-04T03:49:29.204Z,100491.98
2023-04-04T03:52:35.722Z,100487.39
2023-04-04T03:55:40.835Z,100493.72
2023-04-04T03:58:46.662Z,100495.62
2023-04-04T04:01:53.465Z,100490.86
2023-04-04T04:05:01.915Z,100494.79
2023-04-04T04:08:07.876Z,100495.12
2023-04-04T04:11:20.487Z,100491.72
2023-04-04T04:14:26.777Z,100494.09
2023-04-04T04:17:34.182Z,100496.16
2023-04-04T04:20:41.153Z,100494.95
2023-04-04T04:23:48.480Z,100506.22
2023-04-04T04:26:56.800Z,100504.72
2023-04-04T04:30:03.750Z,100503.34
2023-04-04T04:33:13.005Z,100493.26
2023-04-04T04:36:23.132Z,100490.19
2023-04-04T04:39:35.072Z,100485.89
2023-04-04T04:42:42.384Z,100485.56
2023-04-04T04:45:50.109Z,100484.53
2023-04-04T04:48:56.684Z,100495.16
2023-04-04T04:52:03.071Z,100508.98
2023-04-04T04:55:11.353Z,100502.84
2023-04-04T04:58:19.477Z,100502.21
2023-04-04T05:01:25.806Z,100513.17
2023-04-04T05:04:30.506Z,100517.09
2023-04-04T05:07:39.565Z,100522.39
2023-04-04T05:10:47.277Z,100510.30
2023-04-04T05:13:55.864Z,100517.96
2023-04-04T05:17:04.154Z,100520.52
2023-04-04T05:20:11.706Z,100527.39
2023-04-04T05:23:19.718Z,100519.20
2023-04-04T05:26:27.075Z,100515.09
2023-04-04T05:29:32.751Z,100513.25
2023-04-04T05:32:40.429Z,100514.45
2023-04-04T05:35:49.505Z,100527.50
2023-04-04T05:38:56.921Z,100522.73
2023-04-04T05:42:03.891Z,100536.40
2023-04-04T05:45:12.844Z,100529.57
2023-04-04T05:48:19.280Z,100537.78
2023-04-04T05:51:25.100Z,100535.36
2023-04-04T05:54:32.511Z,100532.28
2023-04-04T05:57:39.626Z,100538.25
2023-04-04T06:00:46.248Z,100524.38
2023-04-04T06:03:53.470Z,100532.06
2023-04-04T06:07:01.069Z,100542.34
2023-04-04T06:10:07.259Z,100543.17
2023-04-04T06:13:14.684Z,100542.47
2023-04-04T06:16:22.458Z,100546.55
2023-04-04T06:19:29.556Z,100551.02
2023-04-04T06:22:36.708Z,100534.37
2023-04-04T06:25:42.831Z,100540.33
2023-04-04T06:28:50.695Z,100547.48
2023-04-04T06:31:59.326Z,100546.08
2023-04-04T06:35:08.194Z,100547.41
2023-04-04T06:38:16.866Z,100551.77
2023-04-04T06:41:23.848Z,100544.44
2023-04-04T06:44:32.455Z,100550.28
2023-04-04T06:47:40.159Z,100552.27
2023-04-04T06:50:45.948Z,100553.09
2023-04-04T06:53:52.803Z,100555.75
2023-04-04T06:56:59.453Z,100549.28
2023-04-04T07:00:05.491Z,100551.12
2023-04-04T07:03:15.873Z,100549.05
2023-04-04T07:06:24.016Z,100554.11
2023-04-04T07:09:30.713Z,100557.66
2023-04-04T07:12:38.881Z,100561.08
2023-04-04T07:15:46.474Z,100567.30
2023-04-04T07:18:53.262Z,100566.26
2023-04-04T07:22:01.542Z,100571.56
2023-04-04T07:25:07.894Z,100572.07
2023-04-04T07:28:13.847Z,100568.16
2023-04-04T07:31:21.941Z,100570.42
2023-04-04T07:34:27.805Z,100571.56
2023-04-04T07:37:37.496Z,100578.14
2023-04-04T07:40:45.680Z,100587.91
2023-04-04T07:43:52.393Z,100585.69
2023-04-04T07:47:08.569Z,100587.58
2023-04-04T07:50:05.191Z,100594.41
2023-04-04T07:53:14.354Z,100587.86
2023-04-04T07:56:21.784Z,100585.55
2023-04-04T08:00:00.147Z,100586.84
2023-04-04T08:03:11.629Z,100580.98
2023-04-04T08:06:19.498Z,100586.41
2023-04-04T08:09:25.899Z,100582.52
2023-04-04T08:12:33.905Z,100580.23
2023-04-04T08:15:40.161Z,100577.66
2023-04-04T08:18:47.972Z,100580.66
2023-04-04T08:21:54.203Z,100580.45
2023-04-04T08:25:01.007Z,100582.19
2023-04-04T08:28:07.602Z,100588.51
2023-04-04T08:31:15.686Z,100590.03
2023-04-04T08:34:21.933Z,100593.45
2023-04-04T08:37:27.680Z,100595.90
2023-04-04T08:40:34.983Z,100594.69
2023-04-04T08:43:41.132Z,100593.09
2023-04-04T08:46:48.631Z,100592.23
2023-04-04T08:50:00.746Z,100587.39
2023-04-04T08:53:08.470Z,100589.08
2023-04-04T08:56:15.219Z,100587.94
2023-04-04T08:59:22.996Z,100589.42
2023-04-04T09:02:43.732Z,100593.38
2023-04-04T09:05:48.320Z,100593.83
2023-04-04T09:08:53.481Z,100585.59
2023-04-04T09:11:58.854Z,100581.77
2023-04-04T09:15:06.360Z,100585.63
2023-04-04T09:18:14.179Z,100587.97
2023-04-04T09:21:26.464Z,100577.85
2023-04-04T09:24:32.916Z,100570.48
2023-04-04T09:27:41.014Z,100584.08
2023-04-04T09:30:48.227Z,100578.31
2023-04-04T09:33:55.007Z,100582.44
2023-04-04T09:37:03.292Z,100582.52
2023-04-04T09:40:11.023Z,100582.41
2023-04-04T09:43:17.385Z,100574.52
2023-04-04T09:46:22.151Z,100578.84
2023-04-04T09:49:35.123Z,100581.09
2023-04-04T09:52:43.363Z,100582.70
2023-04-04T09:55:53.348Z,100582.70
2023-04-04T09:59:05.102Z,100582.52
2023-04-04T10:02:12.524Z,100575.32
2023-04-04T10:05:19.062Z,100575.97
2023-04-04T10:08:30.938Z,100575.21
2023-04-04T10:11:50.130Z,100573.17
2023-04-04T10:14:59.561Z,100578.95
2023-04-04T10:18:06.227Z,100572.56
2023-04-04T10:21:15.863Z,100565.02
2023-04-04T10:24:21.437Z,100575.13
2023-04-04T10:27:28.086Z,100568.51
2023-04-04T10:30:34.166Z,100571.38
2023-04-04T10:34:25.849Z,100564.28
2023-04-04T10:37:37.407Z,100570.13
2023-04-04T10:40:50.003Z,100569.91
2023-04-04T10:43:56.290Z,100569.13
2023-04-04T10:47:04.760Z,100568.96
2023-04-04T10:50:11.668Z,100566.45
2023-04-04T10:53:18.273Z,100561.16
2023-04-04T10:56:25.140Z,100561.27
2023-04-04T10:59:31.829Z,100562.37
2023-04-04T11:03:04.604Z,100557.88
2023-04-04T11:06:11.368Z,100553.00
2023-04-04T11:09:17.464Z,100557.16
2023-04-04T11:12:29.108Z,100555.53
2023-04-04T11:15:39.169Z,100556.83
2023-04-04T11:18:59.681Z,100546.89
2023-04-04T11:22:08.794Z,100543.23
2023-04-04T11:25:16.293Z,100553.20
2023-04-04T11:28:29.926Z,100553.83
2023-04-04T11:31:43.225Z,100547.17
2023-04-04T11:34:46.853Z,100548.44
2023-04-04T11:38:13.276Z,100544.89
2023-04-04T11:41:22.204Z,100551.30
2023-04-04T11:44:32.816Z,100544.20
2023-04-04T11:47:40.257Z,100544.73
2023-04-04T11:50:56.622Z,100542.54
2023-04-04T11:54:04.125Z,100538.10
2023-04-04T11:57:11.052Z,100538.22
2023-04-04T12:00:18.749Z,100525.45
2023-04-04T12:03:25.757Z,100530.77
2023-04-04T12:06:32.608Z,100535.56
2023-04-04T12:09:40.802Z,100528.01
2023-04-04T12:12:46.237Z,100523.85
2023-04-04T12:15:53.043Z,100523.95
2023-04-04T12:19:01.727Z,100514.72
2023-04-04T12:22:09.814Z,100515.25
2023-04-04T12:25:16.993Z,100509.39
2023-04-04T12:28:22.828Z,100505.88
2023-04-04T12:31:29.387Z,100504.19
2023-04-04T12:34:43.054Z,100512.80
2023-04-04T12:37:51.153Z,100511.11
2023-04-04T12:40:58.153Z,100514.61
2023-04-04T12:44:04.339Z,100506.19
2023-04-04T12:47:17.628Z,100509.61
2023-04-04T12:50:25.668Z,100506.84
2023-04-04T12:53:30.896Z,100512.23
2023-04-04T12:56:40.406Z,100517.77
2023-04-04T12:59:49.197Z,100508.93
2023-04-04T13:02:56.979Z,100502.53
2023-04-04T13:06:04.944Z,100505.61
2023-04-04T13:09:10.929Z,100507.21
2023-04-04T13:12:20.905Z,100509.37
2023-04-04T13:15:28.136Z,100512.44
2023-04-04T13:18:38.662Z,100509.75
2023-04-04T13:21:46.460Z,100513.28
2023-04-04T13:24:53.331Z,100507.10
2023-04-04T13:28:01.177Z,100516.23
2023-04-04T13:31:07.105Z,100508.91
2023-04-04T13:34:14.264Z,100511.03
2023-04-04T13:37:20.150Z,100512.42
2023-04-04T13:40:26.511Z,100521.23
2023-04-04T13:43:34.097Z,100520.67
2023-04-04T13:46:40.713Z,100518.24
2023-04-04T13:49:45.976Z,100516.00
2023-04-04T13:52:52.057Z,100517.83
2023-04-04T13:56:17.021Z,100524.66
2023-04-04T13:59:04.476Z,100515.49
2023-04-04T14:02:12.567Z,100524.23
2023-04-04T14:05:19.029Z,100519.02
2023-04-04T14:08:26.430Z,100513.16
2023-04-04T14:11:34.489Z,100527.22
2023-04-04T14:14:39.735Z,100520.66
2023-04-04T14:17:47.213Z,100517.77
2023-04-04T14:20:53.827Z,100517.04
2023-04-04T14:24:00.508Z,100520.80
2023-04-04T14:27:08.340Z,100519.80
2023-04-04T14:30:17.307Z,100517.25
2023-04-04T14:33:23.861Z,100518.97
2023-04-04T14:36:31.621Z,100517.16
2023-04-04T14:39:38.635Z,100525.66
2023-04-04T14:42:44.256Z,100522.06
2023-04-04T14:45:50.942Z,100526.19
2023-04-04T14:48:56.899Z,100528.23
2023-04-04T14:52:05.610Z,100524.71
2023-04-04T14:55:12.401Z,100525.88
2023-04-04T14:58:18.324Z,100526.78
2023-04-04T15:01:24.140Z,100529.00
2023-04-04T15:04:30.244Z,100528.04
2023-04-04T15:07:36.146Z,100526.94
2023-04-04T15:10:42.476Z,100525.66
2023-04-04T15:13:49.680Z,100521.80
2023-04-04T15:16:56.018Z,100526.77
2023-04-04T15:20:02.182Z,100529.81
2023-04-04T15:23:09.173Z,100530.43
2023-04-04T15:26:14.948Z,100524.87
2023-04-04T15:29:23.838Z,100521.56
2023-04-04T15:32:31.234Z,100517.17
2023-04-04T15:35:38.714Z,100519.38
2023-04-04T15:38:44.517Z,100515.52
2023-04-04T15:41:51.070Z,100516.84
2023-04-04T15:44:57.324Z,100507.66
2023-04-04T15:48:05.212Z,100509.34
2023-04-04T15:51:15.359Z,100506.19
2023-04-04T15:54:21.946Z,100506.03
2023-04-04T15:57:27.618Z,100504.89
2023-04-04T16:00:38.837Z,100504.70
2023-04-04T16:03:46.270Z,100509.38
2023-04-04T16:06:54.227Z,100502.05
2023-04-04T16:09:59.594Z,100500.55
2023-04-04T16:13:06.283Z,100500.95
2023-04-04T16:16:13.953Z,100499.59
2023-04-04T16:19:24.268Z,100493.12
2023-04-04T16:22:30.569Z,100482.14
2023-04-04T16:25:37.720Z,100483.36
2023-04-04T16:28:45.511Z,100492.82
2023-04-04T16:31:53.372Z,100486.12
2023-04-04T16:35:01.981Z,100487.63
2023-04-04T16:38:10.288Z,100488.11
2023-04-04T16:41:16.901Z,100485.52
2023-04-04T16:44:22.911Z,100488.55
2023-04-04T16:47:28.939Z,100489.30
2023-04-04T16:50:35.512Z,100490.12
2023-04-04T16:53:42.932Z,100487.97
2023-04-04T16:56:48.931Z,100485.30
2023-04-04T16:59:56.776Z,100479.70
2023-04-04T17:03:03.007Z,100489.88
2023-04-04T17:06:09.528Z,100486.82
2023-04-04T17:09:15.082Z,100483.75
2023-04-04T17:12:23.836Z,100472.95
2023-04-04T17:15:31.802Z,100468.84
2023-04-04T17:18:38.342Z,100467.47
2023-04-04T17:21:44.679Z,100459.73
2023-04-04T17:24:49.977Z,100462.67
2023-04-04T17:27:55.216Z,100467.98
2023-04-04T17:31:01.261Z,100466.60
2023-04-04T17:34:11.137Z,100466.60
2023-04-04T17:37:18.539Z,100470.21
2023-04-04T17:40:27.380Z,100473.82
2023-04-04T17:43:32.956Z,100482.06
2023-04-04T17:46:38.975Z,100478.09
2023-04-04T17:49:45.955Z,100468.16
2023-04-04T17:52:52.760Z,100473.33
2023-04-04T17:55:58.732Z,100466.66
2023-04-04T17:59:04.649Z,100476.27
2023-04-04T18:02:11.737Z,100474.53
2023-04-04T18:05:16.828Z,100477.47
2023-04-04T18:08:24.161Z,100470.15
2023-04-04T18:11:32.369Z,100472.22
2023-04-04T18:14:38.242Z,100459.70
2023-04-04T18:17:40.260Z,100452.70
2023-04-04T18:20:35.368Z,100456.14
2023-04-04T18:23:42.644Z,100464.93
2023-04-04T18:26:48.099Z,100464.63
2023-04-04T18:29:53.736Z,100478.77
2023-04-04T18:33:00.831Z,100477.63
2023-04-04T18:36:09.783Z,100475.96
2023-04-04T18:39:17.809Z,100471.91
2023-04-04T18:42:23.582Z,100479.17
2023-04-04T18:45:39.322Z,100477.16
2023-04-04T18:48:40.218Z,100476.48
2023-04-04T18:51:46.950Z,100477.53
2023-04-04T18:54:53.921Z,100481.69
2023-04-04T18:58:01.086Z,100482.05
2023-04-04T19:01:10.081Z,100478.98
2023-04-04T19:04:17.106Z,100484.47
2023-04-04T19:07:22.953Z,100482.45
2023-04-04T19:10:28.837Z,100472.02
2023-04-04T19:13:36.635Z,100472.89
2023-04-04T19:16:43.140Z,100469.82
2023-04-04T19:19:50.221Z,100469.28
2023-04-04T19:22:57.769Z,100466.22
2023-04-04T19:26:04.725Z,100459.55
2023-04-04T19:29:14.041Z,100464.34
2023-04-04T19:32:31.797Z,100455.61
2023-04-04T19:35:40.966Z,100456.48
2023-04-04T19:38:56.541Z,100460.92
2023-04-04T19:42:05.322Z,100456.30
2023-04-04T19:45:12.130Z,100457.13
2023-04-04T19:48:21.047Z,100447.72
2023-04-04T19:51:39.900Z,100444.15
2023-04-04T19:54:49.135Z,100441.63
2023-04-04T19:57:55.242Z,100432.25
2023-04-04T20:01:00.973Z,100432.78
2023-04-04T20:04:07.184Z,100426.62
2023-04-04T20:07:12.948Z,100434.19
2023-04-04T20:10:19.158Z,100435.04
2023-04-04T20:13:25.354Z,100430.95
2023-04-04T20:16:31.559Z,100432.02
2023-04-04T20:19:37.420Z,100428.44
2023-04-04T20:22:43.301Z,100422.95
2023-04-04T20:25:56.478Z,100426.05
2023-04-04T20:29:03.015Z,100425.23
2023-04-04T20:32:20.955Z,100422.66
2023-04-04T20:35:44.363Z,100418.58
2023-04-04T20:38:52.269Z,100414.28
2023-04-04T20:41:57.956Z,100406.95
2023-04-04T20:45:04.970Z,100404.38
2023-04-04T20:48:11.784Z,100403.70
2023-04-04T20:51:17.873Z,100404.38
2023-04-04T20:54:27.115Z,100390.02
2023-04-04T20:57:37.699Z,100391.55
2023-04-04T21:00:54.153Z,100385.06
2023-04-04T21:04:01.326Z,100385.06
2023-04-04T21:07:09.165Z,100374.81
2023-04-04T21:10:14.566Z,100366.93
2023-04-04T21:13:20.306Z,100359.94
2023-04-04T21:16:30.873Z,100355.15
2023-04-04T21:19:37.831Z,100357.56
2023-04-04T21:22:43.177Z,100341.83
2023-04-04T21:25:59.029Z,100343.89
2023-04-04T21:29:07.057Z,100334.48
2023-04-04T21:32:17.076Z,100344.22
2023-04-04T21:35:22.908Z,100336.70
2023-04-04T21:38:41.799Z,100342.52
2023-04-04T21:41:48.983Z,100338.08
2023-04-04T21:44:55.244Z,100338.59
2023-04-04T21:48:02.569Z,100337.22
2023-04-04T21:51:10.495Z,100335.70
2023-04-04T21:54:17.034Z,100331.25
2023-04-04T21:57:23.274Z,100328.53
2023-04-04T22:00:30.569Z,100327.52
2023-04-04T22:03:37.954Z,100324.59
2023-04-04T22:06:44.530Z,100327.67
2023-04-04T22:09:49.630Z,100324.42
2023-04-04T22:12:56.873Z,100319.65
2023-04-04T22:16:06.226Z,100319.66
2023-04-04T22:19:12.584Z,100323.41
2023-04-04T22:22:20.254Z,100335.02
2023-04-04T22:25:28.340Z,100338.09
2023-04-04T22:28:35.278Z,100344.76
2023-04-04T22:31:43.883Z,100359.78
2023-04-04T22:34:50.633Z,100357.19
2023-04-04T22:37:57.459Z,100357.36
2023-04-04T22:41:03.576Z,100350.70
2023-04-04T22:44:10.428Z,100346.61
2023-04-04T22:47:18.505Z,100352.06
2023-04-04T22:50:25.080Z,100347.14
2023-04-04T22:53:31.958Z,100353.80
2023-04-04T22:56:37.992Z,100353.62
2023-04-04T22:59:44.132Z,100338.43
2023-04-04T23:02:51.825Z,100327.33
2023-04-04T23:05:57.496Z,100324.76
2023-04-04T23:09:04.353Z,100327.16
2023-04-04T23:12:09.944Z,100328.17
2023-04-04T23:15:16.660Z,100320.33
2023-04-04T23:18:22.845Z,100317.91
2023-04-04T23:21:29.439Z,100316.23
2023-04-04T23:24:35.227Z,100321.86
2023-04-04T23:27:41.500Z,100322.71
2023-04-04T23:30:47.596Z,100317.09
2023-04-04T23:33:55.683Z,100313.31
2023-04-04T23:37:02.124Z,100315.39
2023-04-04T23:40:09.676Z,100303.08
2023-04-04T23:43:15.513Z,100307.52
2023-04-04T23:46:22.764Z,100304.77
2023-04-04T23:49:28.872Z,100298.45
2023-04-04T23:52:35.918Z,100300.51
2023-04-04T23:55:42.599Z,100300.34
2023-04-04T23:58:48.887Z,100300.48
